Terminal Aerodrome Forecast
Issued by NWS

Home | Current Version | Previous Version | Text Only | Print | Product List | Glossary On
Versions: 1 2 3 4 5 6 7 8 9 10 11 12 13 14 15 16 17 18 19 20 21 22
000
FTUS42 KFFC 232106 AAA
TAFPDK
TAF AMD
KPDK 232106Z 2321/2418 25007KT 2SM SHRA OVC005
     FM232200 24007KT P6SM VCSH OVC015
     FM240100 28007KT P6SM OVC015
     FM240400 30006KT 6SM -DZ OVC012
     FM240800 36005KT 5SM -DZ OVC007
     FM241400 35007KT P6SM BKN012=

USA.gov is the U.S. government's official web portal to all federal, state and local government web resources and services.